createdAt,value
2017-04-06T00:00:40.520Z,7.67
2017-04-06T00:01:40.556Z,7.82
2017-04-06T00:02:40.590Z,7.77
2017-04-06T00:03:40.618Z,7.67
2017-04-06T00:04:40.652Z,7.6
2017-04-06T00:05:40.690Z,7.63
2017-04-06T00:06:40.729Z,7.67
2017-04-06T00:07:41.054Z,7.69
2017-04-06T00:08:41.098Z,7.56
2017-04-06T00:09:40.821Z,7.6
2017-04-06T00:10:40.861Z,7.59
2017-04-06T00:11:40.896Z,7.52
2017-04-06T00:12:40.926Z,7.58
2017-04-06T00:13:40.959Z,7.52
2017-04-06T00:14:41.000Z,7.55
2017-04-06T00:15:41.030Z,7.45
2017-04-06T00:16:41.061Z,7.45
2017-04-06T00:17:41.100Z,7.49
2017-04-06T00:18:41.134Z,7.47
2017-04-06T00:19:41.157Z,7.42
2017-04-06T00:20:41.197Z,7.41
2017-04-06T00:21:41.238Z,7.4
2017-04-06T00:22:41.261Z,7.41
2017-04-06T00:23:41.300Z,7.55
2017-04-06T00:24:41.336Z,7.45
2017-04-06T00:25:41.368Z,7.42
2017-04-06T00:26:41.403Z,7.45
2017-04-06T00:27:41.432Z,7.52
2017-04-06T00:28:41.495Z,7.45
2017-04-06T00:29:41.813Z,7.44
2017-04-06T00:30:41.538Z,7.41
2017-04-06T00:31:41.574Z,7.42
2017-04-06T00:32:41.907Z,7.45
2017-04-06T00:33:41.640Z,7.41
2017-04-06T00:34:41.674Z,7.4
2017-04-06T00:35:41.717Z,7.47
2017-04-06T00:36:41.740Z,7.42
2017-04-06T00:37:41.776Z,7.55
2017-04-06T00:38:42.110Z,7.41
2017-04-06T00:39:42.134Z,7.41
2017-04-06T00:40:41.884Z,7.4
2017-04-06T00:41:41.904Z,7.47
2017-04-06T00:42:41.945Z,7.41
2017-04-06T00:43:41.978Z,7.5
2017-04-06T00:44:42.007Z,7.5
2017-04-06T00:45:42.044Z,7.5
2017-04-06T00:46:42.075Z,7.59
2017-04-06T00:47:42.112Z,7.62
2017-04-06T00:48:42.148Z,7.5
2017-04-06T00:49:42.179Z,7.58
2017-04-06T00:50:42.208Z,7.58
2017-04-06T00:51:42.549Z,7.58
2017-04-06T00:52:42.282Z,7.66
2017-04-06T00:53:42.316Z,7.75
2017-04-06T00:54:42.647Z,7.74
2017-04-06T00:55:42.386Z,7.69
2017-04-06T00:56:42.422Z,7.74
2017-04-06T00:57:42.752Z,7.63
2017-04-06T00:58:42.486Z,7.87
2017-04-06T00:59:42.520Z,7.75
2017-04-06T01:00:42.562Z,7.79
2017-04-06T01:01:42.894Z,7.82
2017-04-06T01:02:42.613Z,7.78
2017-04-06T01:03:42.655Z,7.9
2017-04-06T01:04:42.695Z,7.84
2017-04-06T01:05:42.717Z,7.79
2017-04-06T01:06:42.757Z,7.84
2017-04-06T01:07:42.789Z,7.89
2017-04-06T01:08:42.828Z,7.71
2017-04-06T01:09:42.852Z,7.81
2017-04-06T01:10:43.188Z,7.84
2017-04-06T01:11:42.932Z,7.81
2017-04-06T01:12:42.953Z,7.78
2017-04-06T01:13:42.997Z,7.75
2017-04-06T01:14:43.322Z,7.84
2017-04-06T01:15:43.063Z,7.75
2017-04-06T01:16:43.399Z,7.82
2017-04-06T01:17:43.133Z,7.84
2017-04-06T01:18:43.155Z,7.78
2017-04-06T01:19:43.202Z,7.77
2017-04-06T01:20:43.230Z,7.72
2017-04-06T01:21:43.562Z,7.71
2017-04-06T01:22:43.300Z,7.79
2017-04-06T01:23:43.326Z,7.74
2017-04-06T01:24:43.399Z,7.78
2017-04-06T01:25:43.402Z,7.75
2017-04-06T01:26:43.438Z,7.75
2017-04-06T01:27:43.772Z,7.81
2017-04-06T01:28:43.496Z,7.75
2017-04-06T01:29:43.538Z,7.84
2017-04-06T01:30:43.571Z,7.78
2017-04-06T01:31:43.605Z,7.78
2017-04-06T01:32:43.634Z,7.72
2017-04-06T01:33:43.672Z,7.77
2017-04-06T01:34:43.701Z,7.79
2017-04-06T01:35:43.738Z,7.71
2017-04-06T01:36:43.774Z,7.82
2017-04-06T01:37:44.117Z,7.77
2017-04-06T01:38:43.836Z,7.82
2017-04-06T01:39:43.869Z,7.78
2017-04-06T01:40:43.930Z,7.79
2017-04-06T01:41:43.949Z,7.74
2017-04-06T01:42:43.971Z,7.74
2017-04-06T01:43:44.310Z,7.72
2017-04-06T01:44:44.048Z,7.85
2017-04-06T01:45:44.389Z,7.82
2017-04-06T01:46:44.111Z,7.75
2017-04-06T01:47:44.147Z,7.85
2017-04-06T01:48:44.178Z,7.78
2017-04-06T01:49:44.218Z,7.85
2017-04-06T01:50:44.247Z,7.79
2017-04-06T01:51:44.582Z,7.71
2017-04-06T01:52:44.320Z,7.75
2017-04-06T01:53:44.349Z,7.77
2017-04-06T01:54:44.391Z,7.75
2017-04-06T01:55:44.416Z,7.75
2017-04-06T01:56:44.451Z,7.71
2017-04-06T01:57:44.481Z,7.74
2017-04-06T01:58:44.523Z,7.75
2017-04-06T01:59:44.552Z,7.77
2017-04-06T02:00:44.585Z,7.74
2017-04-06T02:01:44.623Z,7.72
2017-04-06T02:02:44.666Z,7.77
2017-04-06T02:03:44.688Z,7.74
2017-04-06T02:04:45.030Z,7.79
2017-04-06T02:05:44.757Z,7.85
2017-04-06T02:06:44.790Z,7.92
2017-04-06T02:07:44.829Z,7.78
2017-04-06T02:08:44.862Z,7.78
2017-04-06T02:09:44.896Z,7.84
2017-04-06T02:10:44.925Z,7.75
2017-04-06T02:11:44.970Z,7.81
2017-04-06T02:12:44.992Z,7.81
2017-04-06T02:13:45.032Z,7.71
2017-04-06T02:14:45.062Z,7.71
2017-04-06T02:15:45.094Z,7.71
2017-04-06T02:16:45.136Z,7.77
2017-04-06T02:17:45.161Z,7.78
2017-04-06T02:18:45.198Z,7.72
2017-04-06T02:19:45.236Z,7.82
2017-04-06T02:20:45.266Z,7.77
2017-04-06T02:21:45.599Z,7.81
2017-04-06T02:22:45.330Z,7.77
2017-04-06T02:23:45.364Z,7.78
2017-04-06T02:24:45.409Z,7.74
2017-04-06T02:25:45.440Z,7.78
2017-04-06T02:26:45.477Z,7.78
2017-04-06T02:27:45.511Z,7.72
2017-04-06T02:28:45.542Z,7.77
2017-04-06T02:29:45.576Z,7.79
2017-04-06T02:30:45.606Z,7.77
2017-04-06T02:31:45.649Z,7.77
2017-04-06T02:32:45.983Z,7.81
2017-04-06T02:33:45.705Z,7.77
2017-04-06T02:34:46.049Z,7.74
2017-04-06T02:35:45.776Z,7.78
2017-04-06T02:36:45.809Z,7.71
2017-04-06T02:37:45.841Z,7.75
2017-04-06T02:38:45.882Z,7.72
2017-04-06T02:39:45.911Z,7.75
2017-04-06T02:40:45.952Z,7.72
2017-04-06T02:41:45.979Z,7.75
2017-04-06T02:42:46.011Z,7.74
2017-04-06T02:43:46.056Z,7.74
2017-04-06T02:44:46.087Z,7.74
2017-04-06T02:45:46.111Z,7.74
2017-04-06T02:46:46.163Z,7.75
2017-04-06T02:47:46.482Z,7.72
2017-04-06T02:48:46.220Z,7.71
2017-04-06T02:49:46.255Z,7.74
2017-04-06T02:50:46.290Z,7.75
2017-04-06T02:51:46.635Z,7.72
2017-04-06T02:52:46.355Z,7.78
2017-04-06T02:53:46.390Z,7.78
2017-04-06T02:54:46.419Z,7.77
2017-04-06T02:55:46.463Z,7.79
2017-04-06T02:56:46.494Z,7.81
2017-04-06T02:57:46.524Z,7.85
2017-04-06T02:58:46.553Z,7.78
2017-04-06T02:59:46.587Z,7.85
2017-04-06T03:00:46.623Z,7.77
2017-04-06T03:01:46.656Z,7.78
2017-04-06T03:02:46.698Z,7.77
2017-04-06T03:03:47.022Z,7.81
2017-04-06T03:04:46.765Z,7.78
2017-04-06T03:05:46.802Z,7.87
2017-04-06T03:06:46.833Z,7.87
2017-04-06T03:07:46.865Z,7.89
2017-04-06T03:08:46.898Z,7.9
2017-04-06T03:09:46.934Z,7.87
2017-04-06T03:10:46.969Z,7.84
2017-04-06T03:11:47.295Z,7.81
2017-04-06T03:12:47.035Z,7.82
2017-04-06T03:13:47.066Z,7.77
2017-04-06T03:14:47.104Z,7.78
2017-04-06T03:15:47.130Z,7.75
2017-04-06T03:16:47.478Z,7.77
2017-04-06T03:17:47.207Z,7.62
2017-04-06T03:18:47.231Z,7.74
2017-04-06T03:19:47.270Z,7.77
2017-04-06T03:20:47.302Z,7.72
2017-04-06T03:21:47.342Z,7.74
2017-04-06T03:22:47.367Z,7.74
2017-04-06T03:23:47.411Z,7.78
2017-04-06T03:24:47.447Z,7.66
2017-04-06T03:25:47.507Z,7.72
2017-04-06T03:26:47.516Z,7.72
2017-04-06T03:27:47.541Z,7.74
2017-04-06T03:28:47.876Z,7.79
2017-04-06T03:29:47.611Z,7.72
2017-04-06T03:30:47.647Z,7.75
2017-04-06T03:31:47.681Z,7.74
2017-04-06T03:32:47.713Z,7.72
2017-04-06T03:33:47.745Z,7.75
2017-04-06T03:34:47.783Z,7.63
2017-04-06T03:35:47.809Z,7.59
2017-04-06T03:36:47.847Z,7.62
2017-04-06T03:37:47.888Z,7.53
2017-04-06T03:38:47.916Z,7.59
2017-04-06T03:39:47.950Z,7.52
2017-04-06T03:40:47.985Z,7.52
2017-04-06T03:41:48.013Z,7.47
2017-04-06T03:42:48.054Z,7.42
2017-04-06T03:43:48.079Z,7.38
2017-04-06T03:44:48.125Z,7.44
2017-04-06T03:45:48.149Z,7.37
2017-04-06T03:46:48.194Z,7.32
2017-04-06T03:47:48.217Z,7.31
2017-04-06T03:48:48.258Z,7.38
2017-04-06T03:49:48.282Z,7.22
2017-04-06T03:50:48.333Z,7.23
2017-04-06T03:51:48.370Z,7.24
2017-04-06T03:52:48.691Z,7.13
2017-04-06T03:53:48.424Z,7.26
2017-04-06T03:54:48.461Z,7.23
2017-04-06T03:55:48.787Z,7.2
2017-04-06T03:56:48.518Z,7.08
2017-04-06T03:57:48.552Z,7.15
2017-04-06T03:58:48.587Z,7.04
2017-04-06T03:59:48.624Z,6.99
2017-04-06T04:00:48.652Z,7.04
2017-04-06T04:01:48.688Z,7.12
2017-04-06T04:02:48.719Z,7.01
2017-04-06T04:03:48.760Z,7.04
2017-04-06T04:04:48.788Z,6.9
2017-04-06T04:05:49.133Z,7.04
2017-04-06T04:06:48.860Z,6.91
2017-04-06T04:07:48.895Z,6.98
2017-04-06T04:08:48.918Z,6.91
2017-04-06T04:09:48.955Z,6.89
2017-04-06T04:10:48.992Z,6.89
2017-04-06T04:11:49.024Z,6.9
2017-04-06T04:12:49.061Z,6.9
2017-04-06T04:13:49.094Z,6.9
2017-04-06T04:14:49.421Z,6.89
2017-04-06T04:15:49.458Z,6.77
2017-04-06T04:16:49.191Z,6.86
2017-04-06T04:17:49.226Z,6.89
2017-04-06T04:18:49.253Z,6.89
2017-04-06T04:19:49.288Z,6.86
2017-04-06T04:20:49.329Z,6.87
2017-04-06T04:21:49.361Z,6.9
2017-04-06T04:22:49.394Z,6.8
2017-04-06T04:23:49.418Z,6.87
2017-04-06T04:24:49.461Z,6.83
2017-04-06T04:25:49.493Z,6.8
2017-04-06T04:26:49.525Z,6.8
2017-04-06T04:27:49.553Z,6.76
2017-04-06T04:28:49.595Z,6.68
2017-04-06T04:29:49.624Z,6.68
2017-04-06T04:30:49.660Z,6.73
2017-04-06T04:31:49.691Z,6.71
2017-04-06T04:32:49.724Z,6.66
2017-04-06T04:33:49.754Z,6.68
2017-04-06T04:34:49.792Z,6.68
2017-04-06T04:35:49.820Z,6.68
2017-04-06T04:36:49.851Z,6.63
2017-04-06T04:37:49.922Z,6.68
2017-04-06T04:38:49.925Z,6.69
2017-04-06T04:39:49.949Z,6.65
2017-04-06T04:40:49.993Z,6.72
2017-04-06T04:41:50.016Z,6.61
2017-04-06T04:42:50.061Z,6.72
2017-04-06T04:43:50.082Z,6.72
2017-04-06T04:44:50.121Z,6.72
2017-04-06T04:45:50.157Z,6.79
2017-04-06T04:46:50.183Z,6.73
2017-04-06T04:47:50.224Z,6.76
2017-04-06T04:48:50.253Z,6.81
2017-04-06T04:49:50.284Z,6.69
2017-04-06T04:50:50.352Z,6.73
2017-04-06T04:51:50.350Z,6.86
2017-04-06T04:52:50.384Z,6.8
2017-04-06T04:53:50.427Z,6.73
2017-04-06T04:54:50.457Z,6.86
2017-04-06T04:55:50.491Z,6.72
2017-04-06T04:56:50.518Z,6.91
2017-04-06T04:57:50.555Z,6.86
2017-04-06T04:58:50.582Z,6.81
2017-04-06T04:59:50.622Z,6.87
2017-04-06T05:00:50.649Z,6.91
2017-04-06T05:01:50.986Z,6.94
2017-04-06T05:02:50.718Z,6.9
2017-04-06T05:03:50.761Z,6.9
2017-04-06T05:04:50.785Z,6.89
2017-04-06T05:05:51.044Z,6.98
2017-04-06T05:06:50.859Z,6.99
2017-04-06T05:07:50.888Z,6.97
2017-04-06T05:08:50.925Z,6.99
2017-04-06T05:09:50.964Z,7.08
2017-04-06T05:10:50.989Z,7.02
2017-04-06T05:11:51.019Z,7.05
2017-04-06T05:12:51.054Z,7.04
2017-04-06T05:13:51.087Z,7.09
2017-04-06T05:14:51.126Z,7.08
2017-04-06T05:15:51.164Z,7.13
2017-04-06T05:16:51.193Z,7.13
2017-04-06T05:17:51.220Z,7.09
2017-04-06T05:18:51.561Z,7.23
2017-04-06T05:19:51.296Z,7.24
2017-04-06T05:20:51.325Z,7.22
2017-04-06T05:21:51.359Z,7.2
2017-04-06T05:22:51.440Z,7.22
2017-04-06T05:23:51.425Z,7.27
2017-04-06T05:24:51.454Z,7.29
2017-04-06T05:25:51.526Z,7.35
2017-04-06T05:26:51.524Z,7.38
2017-04-06T05:27:51.566Z,7.47
2017-04-06T05:28:51.591Z,7.45
2017-04-06T05:29:51.627Z,7.52
2017-04-06T05:30:51.658Z,7.47
2017-04-06T05:31:51.691Z,7.53
2017-04-06T05:32:51.730Z,7.71
2017-04-06T05:33:51.758Z,7.72
2017-04-06T05:34:51.791Z,7.75
2017-04-06T05:35:51.836Z,7.82
2017-04-06T05:36:51.864Z,7.84
2017-04-06T05:37:51.914Z,7.81
2017-04-06T05:38:51.929Z,7.85
2017-04-06T05:39:51.962Z,7.92
2017-04-06T05:40:52.304Z,7.96
2017-04-06T05:41:52.033Z,7.93
2017-04-06T05:42:52.067Z,7.92
2017-04-06T05:43:52.108Z,8.15
2017-04-06T05:44:52.139Z,8.2
2017-04-06T05:45:52.165Z,8.36
2017-04-06T05:46:52.513Z,8.66
2017-04-06T05:47:52.241Z,8.97
2017-04-06T05:48:52.320Z,9.2
2017-04-06T05:49:52.306Z,9.43
2017-04-06T05:50:52.346Z,9.81
2017-04-06T05:51:52.393Z,9.96
2017-04-06T05:52:52.716Z,10.17
2017-04-06T05:53:52.451Z,10.43
2017-04-06T05:54:52.793Z,10.83
2017-04-06T05:55:52.517Z,11.25
2017-04-06T05:56:52.552Z,11.8
2017-04-06T05:57:52.620Z,12.11
2017-04-06T05:58:52.627Z,12.44
2017-04-06T05:59:52.665Z,12.87
2017-04-06T06:00:52.701Z,13.25
2017-04-06T06:01:52.733Z,13.63
2017-04-06T06:02:52.776Z,14.07
2017-04-06T06:03:52.811Z,14.52
2017-04-06T06:04:52.847Z,15.06
2017-04-06T06:05:53.195Z,15.41
2017-04-06T06:06:52.929Z,15.84
2017-04-06T06:07:52.968Z,16.06
2017-04-06T06:08:52.996Z,16.18
2017-04-06T06:09:53.037Z,16.25
2017-04-06T06:10:53.079Z,16.31
2017-04-06T06:11:53.153Z,16.42
2017-04-06T06:12:53.162Z,16.68
2017-04-06T06:13:53.200Z,16.9
2017-04-06T06:14:53.244Z,17.03
2017-04-06T06:15:54.062Z,17.11
2017-04-06T06:16:53.314Z,17.29
2017-04-06T06:17:53.351Z,17.51
2017-04-06T06:18:53.419Z,17.95
2017-04-06T06:19:53.740Z,18.15
2017-04-06T06:20:53.479Z,18.5
2017-04-06T06:21:53.642Z,18.72
2017-04-06T06:22:53.581Z,19.01
2017-04-06T06:23:53.596Z,18.83
2017-04-06T06:24:53.633Z,18.49
2017-04-06T06:25:53.677Z,18.1
2017-04-06T06:26:53.721Z,17.44
2017-04-06T06:27:53.757Z,16.85
2017-04-06T06:28:54.978Z,16.34
2017-04-06T06:29:53.838Z,16.01
2017-04-06T06:30:53.874Z,15.48
2017-04-06T06:31:53.917Z,15.19
2017-04-06T06:32:53.955Z,14.94
2017-04-06T06:33:54.000Z,14.78
2017-04-06T06:34:54.041Z,14.37
2017-04-06T06:35:54.070Z,14.1
2017-04-06T06:36:54.111Z,13.94
2017-04-06T06:37:54.151Z,14.12
2017-04-06T06:38:54.198Z,14.53
2017-04-06T06:39:54.233Z,14.9
2017-04-06T06:40:54.266Z,15.06
2017-04-06T06:41:54.332Z,15.03
2017-04-06T06:42:54.346Z,15.08
2017-04-06T06:43:54.384Z,14.9
2017-04-06T06:44:54.422Z,14.56
2017-04-06T06:45:54.467Z,14.29
2017-04-06T06:46:54.501Z,14.07
2017-04-06T06:47:54.544Z,13.79
2017-04-06T06:48:54.583Z,13.58
2017-04-06T06:49:54.616Z,13.44
2017-04-06T06:50:54.661Z,13.38
2017-04-06T06:51:54.764Z,13.29
2017-04-06T06:52:54.731Z,13.24
2017-04-06T06:53:54.778Z,13.14
2017-04-06T06:54:55.178Z,13.02
2017-04-06T06:55:54.852Z,12.89
2017-04-06T06:56:55.481Z,12.69
2017-04-06T06:57:54.920Z,12.37
2017-04-06T06:58:54.961Z,12.2
2017-04-06T06:59:55.379Z,12.08
2017-04-06T07:00:55.038Z,11.93
2017-04-06T07:01:55.073Z,11.78
2017-04-06T07:02:55.416Z,11.53
2017-04-06T07:03:55.148Z,11.56
2017-04-06T07:04:55.184Z,11.44
2017-04-06T07:05:55.228Z,11.32
2017-04-06T07:06:55.264Z,11.31
2017-04-06T07:07:55.377Z,11.36
2017-04-06T07:08:55.332Z,11.39
2017-04-06T07:09:55.370Z,11.19
2017-04-06T07:10:55.707Z,11.32
2017-04-06T07:11:55.443Z,11.21
2017-04-06T07:12:56.130Z,11.21
2017-04-06T07:13:55.827Z,11.27
2017-04-06T07:14:55.560Z,11.39
2017-04-06T07:15:55.891Z,11.41
2017-04-06T07:16:55.641Z,11.54
2017-04-06T07:17:55.670Z,11.74
2017-04-06T07:18:55.702Z,12.24
2017-04-06T07:19:55.743Z,13
2017-04-06T07:20:55.777Z,13.89
2017-04-06T07:21:55.831Z,14.62
2017-04-06T07:22:55.864Z,15.35
2017-04-06T07:23:55.902Z,15.61
2017-04-06T07:24:55.942Z,15.68
2017-04-06T07:25:56.274Z,15.64
2017-04-06T07:26:56.014Z,15.63
2017-04-06T07:27:56.059Z,15.48
2017-04-06T07:28:56.092Z,15.41
2017-04-06T07:29:56.138Z,15.41
2017-04-06T07:30:56.178Z,15.46
2017-04-06T07:31:56.218Z,15.36
2017-04-06T07:32:56.262Z,15.08
2017-04-06T07:33:56.289Z,15.21
2017-04-06T07:34:56.335Z,15.39
2017-04-06T07:35:56.368Z,15.67
2017-04-06T07:36:56.408Z,15.76
2017-04-06T07:37:56.450Z,15.78
2017-04-06T07:38:56.492Z,15.92
2017-04-06T07:39:56.538Z,15.74
2017-04-06T07:40:56.575Z,15.6
2017-04-06T07:41:56.610Z,15.56
2017-04-06T07:42:56.653Z,15.49
2017-04-06T07:43:56.687Z,15.36
2017-04-06T07:44:56.728Z,15.12
2017-04-06T07:45:56.773Z,14.91
2017-04-06T07:46:56.813Z,14.64
2017-04-06T07:47:56.843Z,14.37
2017-04-06T07:48:56.895Z,14.06
2017-04-06T07:49:56.930Z,13.88
2017-04-06T07:50:57.271Z,13.73
2017-04-06T07:51:57.000Z,13.52
2017-04-06T07:52:57.044Z,13.24
2017-04-06T07:53:57.086Z,13.41
2017-04-06T07:54:57.113Z,13.99
2017-04-06T07:55:57.164Z,14.6
2017-04-06T07:56:57.199Z,15.27
2017-04-06T07:57:57.237Z,15.97
2017-04-06T07:58:57.364Z,16.67
2017-04-06T07:59:57.337Z,17.38
2017-04-06T08:00:57.364Z,18.1
2017-04-06T08:01:57.400Z,18.67
2017-04-06T08:02:57.444Z,18.72
2017-04-06T08:03:57.494Z,18.84
2017-04-06T08:04:57.524Z,18.73
2017-04-06T08:05:57.566Z,18.49
2017-04-06T08:06:57.611Z,18.18
2017-04-06T08:07:57.654Z,17.89
2017-04-06T08:08:57.688Z,17.51
2017-04-06T08:09:57.729Z,17.38
2017-04-06T08:10:57.771Z,17.54
2017-04-06T08:11:57.812Z,17.84
2017-04-06T08:12:59.090Z,17.82
2017-04-06T08:13:57.892Z,18.07
2017-04-06T08:14:57.938Z,18.24
2017-04-06T08:15:57.978Z,18.65
2017-04-06T08:16:58.411Z,19.23
2017-04-06T08:17:58.074Z,19.57
2017-04-06T08:18:58.111Z,19.91
2017-04-06T08:19:58.156Z,20.68
2017-04-06T08:20:58.196Z,21.21
2017-04-06T08:21:58.240Z,21.9
2017-04-06T08:22:58.286Z,22.39
2017-04-06T08:23:58.333Z,22.64
2017-04-06T08:24:58.372Z,22.68
2017-04-06T08:25:58.424Z,22.59
2017-04-06T08:26:58.767Z,22.28
2017-04-06T08:27:58.508Z,22.13
2017-04-06T08:28:58.551Z,21.78
2017-04-06T08:29:58.598Z,21.35
2017-04-06T08:30:58.652Z,21.13
2017-04-06T08:31:58.695Z,20.98
2017-04-06T08:32:58.741Z,20.95
2017-04-06T08:33:58.773Z,20.98
2017-04-06T08:34:58.816Z,21.06
2017-04-06T08:35:58.881Z,21.3
2017-04-06T08:36:58.909Z,21.72
2017-04-06T08:37:58.966Z,22.2
2017-04-06T08:38:59.013Z,22.65
2017-04-06T08:39:59.344Z,23.22
2017-04-06T08:40:59.092Z,23.64
2017-04-06T08:41:59.139Z,24.07
2017-04-06T08:42:59.181Z,24.23
2017-04-06T08:43:59.237Z,24.26
2017-04-06T08:44:59.400Z,24.31
2017-04-06T08:45:59.323Z,24.38
2017-04-06T08:46:59.374Z,24.37
2017-04-06T08:47:59.414Z,24.52
2017-04-06T08:48:59.473Z,24.59
2017-04-06T08:49:59.508Z,24.9
2017-04-06T08:50:59.558Z,25.06
2017-04-06T08:51:59.602Z,25.27
2017-04-06T08:52:59.653Z,25.53
2017-04-06T08:53:59.704Z,25.62
2017-04-06T08:55:00.050Z,25.75
2017-04-06T08:55:59.795Z,25.94
2017-04-06T08:56:59.843Z,26.09
2017-04-06T08:57:59.911Z,26.12
2017-04-06T08:58:59.975Z,25.9
2017-04-06T08:59:59.991Z,25.53
2017-04-06T09:01:00.079Z,25.31
2017-04-06T09:02:00.082Z,25.12
2017-04-06T09:03:00.130Z,25.07
2017-04-06T09:04:00.181Z,25.13
2017-04-06T09:05:00.227Z,25.12
2017-04-06T09:06:00.276Z,25.19
2017-04-06T09:07:00.326Z,25.38
2017-04-06T09:08:00.672Z,25.56
2017-04-06T09:09:00.424Z,25.72
2017-04-06T09:10:00.533Z,25.62
2017-04-06T09:11:00.521Z,25.49
2017-04-06T09:12:00.569Z,25.34
2017-04-06T09:13:00.616Z,25.12
2017-04-06T09:14:00.672Z,25
2017-04-06T09:15:00.725Z,24.77
2017-04-06T09:16:00.787Z,24.57
2017-04-06T09:17:01.114Z,24.39
2017-04-06T09:18:00.863Z,24.1
2017-04-06T09:19:00.913Z,23.89
2017-04-06T09:20:00.960Z,23.75
2017-04-06T09:21:01.013Z,23.75
2017-04-06T09:22:01.362Z,23.76
2017-04-06T09:23:01.108Z,23.57
2017-04-06T09:24:01.155Z,23.4
2017-04-06T09:25:01.206Z,23.2
2017-04-06T09:26:01.256Z,23.23
2017-04-06T09:27:01.302Z,23.17
2017-04-06T09:28:01.349Z,23.14
2017-04-06T09:29:01.401Z,23.15
2017-04-06T09:30:01.449Z,23.14
2017-04-06T09:31:01.498Z,23.31
2017-04-06T09:32:01.549Z,23.46
2017-04-06T09:33:01.599Z,23.45
2017-04-06T09:34:01.653Z,23.43
2017-04-06T09:35:01.694Z,23.24
2017-04-06T09:36:02.048Z,23.08
2017-04-06T09:37:01.823Z,22.94
2017-04-06T09:38:01.850Z,22.9
2017-04-06T09:39:01.921Z,22.83
2017-04-06T09:40:01.944Z,22.8
2017-04-06T09:41:02.297Z,22.9
2017-04-06T09:42:02.051Z,22.99
2017-04-06T09:43:02.093Z,23.08
2017-04-06T09:44:02.146Z,23.26
2017-04-06T09:45:02.509Z,23.17
2017-04-06T09:46:02.554Z,22.9
2017-04-06T09:47:02.301Z,22.8
2017-04-06T09:48:02.351Z,22.62
2017-04-06T09:49:02.399Z,22.53
2017-04-06T09:50:02.453Z,22.57
2017-04-06T09:51:02.497Z,22.43
2017-04-06T09:52:02.561Z,22.41
2017-04-06T09:53:02.899Z,22.35
2017-04-06T09:54:02.648Z,22.31
2017-04-06T09:55:02.704Z,22.39
2017-04-06T09:56:02.756Z,22.56
2017-04-06T09:57:03.102Z,22.6
2017-04-06T09:58:02.854Z,22.59
2017-04-06T09:59:02.910Z,22.6
2017-04-06T10:00:02.953Z,22.64
2017-04-06T10:01:03.307Z,22.52
2017-04-06T10:02:03.057Z,22.54
2017-04-06T10:03:03.111Z,22.39
2017-04-06T10:04:03.455Z,22.32
2017-04-06T10:05:03.208Z,22.14
2017-04-06T10:06:03.258Z,22.23
2017-04-06T10:07:03.313Z,22.2
2017-04-06T10:08:03.362Z,22.14
2017-04-06T10:09:03.714Z,22.12
2017-04-06T10:10:03.462Z,22.16
2017-04-06T10:11:03.513Z,22.07
2017-04-06T10:12:03.562Z,22.04
2017-04-06T10:13:03.615Z,22.14
2017-04-06T10:14:03.665Z,22.31
2017-04-06T10:15:03.717Z,22.29
2017-04-06T10:16:03.770Z,22.31
2017-04-06T10:17:03.824Z,22.37
2017-04-06T10:18:03.873Z,22.2
2017-04-06T10:19:03.922Z,22.19
2017-04-06T10:20:03.980Z,22.2
2017-04-06T10:21:04.026Z,22.25
2017-04-06T10:22:04.382Z,22.16
2017-04-06T10:23:04.132Z,22.14
2017-04-06T10:24:04.188Z,22.01
2017-04-06T10:25:04.536Z,21.74
2017-04-06T10:26:04.299Z,21.85
2017-04-06T10:27:04.342Z,21.85
2017-04-06T10:28:04.399Z,21.91
2017-04-06T10:29:04.443Z,21.92
2017-04-06T10:30:04.498Z,22.1
2017-04-06T10:31:04.848Z,22.06
2017-04-06T10:32:04.598Z,21.92
2017-04-06T10:33:04.648Z,22.02
2017-04-06T10:34:04.702Z,22.06
2017-04-06T10:35:04.759Z,22.06
2017-04-06T10:36:04.807Z,21.99
2017-04-06T10:37:04.860Z,21.91
2017-04-06T10:38:05.524Z,21.83
2017-04-06T10:39:05.490Z,21.76
2017-04-06T10:40:05.026Z,21.61
2017-04-06T10:41:05.071Z,21.63
2017-04-06T10:42:05.140Z,21.6
2017-04-06T10:43:05.478Z,21.59
2017-04-06T10:44:05.534Z,21.46
2017-04-06T10:45:05.281Z,21.5
2017-04-06T10:46:05.341Z,21.48
2017-04-06T10:47:05.689Z,21.48
2017-04-06T10:48:05.443Z,21.44
2017-04-06T10:49:05.794Z,21.21
2017-04-06T10:50:05.548Z,21.2
2017-04-06T10:51:05.608Z,21.01
2017-04-06T10:52:05.649Z,20.84
2017-04-06T10:53:05.696Z,20.61
2017-04-06T10:54:05.780Z,20.47
2017-04-06T10:55:05.795Z,20.3
2017-04-06T10:56:05.843Z,20.2
2017-04-06T10:57:05.894Z,20.18
2017-04-06T10:58:05.942Z,20.3
2017-04-06T10:59:05.992Z,20.27
2017-04-06T11:00:06.044Z,20.33
2017-04-06T11:01:06.289Z,20.41
2017-04-06T11:02:06.154Z,20.35
2017-04-06T11:03:06.195Z,20.3
2017-04-06T11:04:06.245Z,20.2
2017-04-06T11:05:06.625Z,20
2017-04-06T11:06:06.343Z,19.97
2017-04-06T11:07:06.700Z,19.84
2017-04-06T11:08:06.443Z,19.86
2017-04-06T11:09:06.486Z,19.75
2017-04-06T11:10:06.562Z,19.78
2017-04-06T11:11:06.590Z,19.87
2017-04-06T11:12:06.631Z,19.8
2017-04-06T11:13:06.696Z,19.7
2017-04-06T11:14:06.737Z,19.69
2017-04-06T11:15:06.787Z,19.54
2017-04-06T11:16:06.832Z,19.4
2017-04-06T11:17:07.185Z,19.2
2017-04-06T11:18:06.921Z,18.98
2017-04-06T11:19:07.266Z,18.77
2017-04-06T11:20:07.010Z,18.61
2017-04-06T11:21:07.059Z,18.65
2017-04-06T11:22:07.403Z,18.49
2017-04-06T11:23:07.149Z,18.47
2017-04-06T11:24:07.198Z,18.29
2017-04-06T11:25:07.238Z,18.18
2017-04-06T11:26:07.287Z,18.12
2017-04-06T11:27:07.423Z,18
2017-04-06T11:28:07.373Z,17.92
2017-04-06T11:29:07.424Z,17.76
2017-04-06T11:30:07.760Z,17.64
2017-04-06T11:31:07.500Z,17.57
2017-04-06T11:32:07.858Z,17.55
2017-04-06T11:33:07.587Z,17.5
2017-04-06T11:34:07.636Z,17.51
2017-04-06T11:35:07.676Z,17.57
2017-04-06T11:36:07.725Z,17.63
2017-04-06T11:37:07.771Z,17.5
2017-04-06T11:38:07.809Z,17.41
2017-04-06T11:39:07.848Z,17.35
2017-04-06T11:40:07.893Z,17.33
2017-04-06T11:41:08.285Z,17.14
2017-04-06T11:42:08.291Z,17.26
2017-04-06T11:43:08.019Z,17.1
2017-04-06T11:44:08.369Z,17.14
2017-04-06T11:45:08.115Z,17.18
2017-04-06T11:46:08.149Z,17.15
2017-04-06T11:47:08.194Z,17.11
2017-04-06T11:48:08.231Z,17.07
2017-04-06T11:49:08.274Z,17.04
2017-04-06T11:50:08.315Z,16.98
2017-04-06T11:51:08.355Z,16.95
2017-04-06T11:52:08.399Z,16.99
2017-04-06T11:53:08.437Z,16.96
2017-04-06T11:54:08.479Z,16.92
2017-04-06T11:55:08.536Z,16.89
2017-04-06T11:56:08.569Z,16.92
2017-04-06T11:57:08.920Z,16.71
2017-04-06T11:58:08.644Z,16.74
2017-04-06T11:59:08.687Z,16.56
2017-04-06T12:00:08.730Z,16.53
2017-04-06T12:01:08.783Z,16.5
2017-04-06T12:02:08.813Z,16.6
2017-04-06T12:03:08.853Z,16.67
2017-04-06T12:04:08.961Z,16.75
2017-04-06T12:05:09.240Z,16.89
2017-04-06T12:06:09.282Z,16.96
2017-04-06T12:07:09.017Z,16.96
2017-04-06T12:08:09.057Z,16.99
2017-04-06T12:09:09.106Z,16.95
2017-04-06T12:10:09.142Z,17.1
2017-04-06T12:11:09.189Z,16.93
2017-04-06T12:12:09.529Z,16.96
2017-04-06T12:13:09.274Z,16.81
2017-04-06T12:14:09.312Z,16.67
2017-04-06T12:15:09.345Z,16.59
2017-04-06T12:16:09.397Z,16.38
2017-04-06T12:17:09.425Z,16.25
2017-04-06T12:18:09.467Z,16.12
2017-04-06T12:19:09.507Z,15.97
2017-04-06T12:20:09.552Z,16
2017-04-06T12:21:09.934Z,15.94
2017-04-06T12:22:09.625Z,15.94
2017-04-06T12:23:09.672Z,15.97
2017-04-06T12:24:09.710Z,16.07
2017-04-06T12:25:10.052Z,16.11
2017-04-06T12:26:09.787Z,16.15
2017-04-06T12:27:09.837Z,16.18
2017-04-06T12:28:09.866Z,16.14
2017-04-06T12:29:09.907Z,16.18
2017-04-06T12:30:09.947Z,16.15
2017-04-06T12:31:09.991Z,16.04
2017-04-06T12:32:10.037Z,16.04
2017-04-06T12:33:10.069Z,15.96
2017-04-06T12:34:10.120Z,16.01
2017-04-06T12:35:10.155Z,15.85
2017-04-06T12:36:10.199Z,15.7
2017-04-06T12:37:10.232Z,15.7
2017-04-06T12:38:10.267Z,15.72
2017-04-06T12:39:10.613Z,15.7
2017-04-06T12:40:10.353Z,15.67
2017-04-06T12:41:10.388Z,15.74
2017-04-06T12:42:10.426Z,15.85
2017-04-06T12:43:10.465Z,15.82
2017-04-06T12:44:10.510Z,15.7
2017-04-06T12:45:10.851Z,15.63
2017-04-06T12:46:10.590Z,15.61
2017-04-06T12:47:10.628Z,15.54
2017-04-06T12:48:10.664Z,15.36
2017-04-06T12:49:10.714Z,15.28
2017-04-06T12:50:10.773Z,15.21
2017-04-06T12:51:11.091Z,15.24
2017-04-06T12:52:10.824Z,15.24
2017-04-06T12:53:10.872Z,15.26
2017-04-06T12:54:10.908Z,15.28
2017-04-06T12:55:10.949Z,15.43
2017-04-06T12:56:10.988Z,15.43
2017-04-06T12:57:11.024Z,15.46
2017-04-06T12:58:11.063Z,15.52
2017-04-06T12:59:11.101Z,15.54
2017-04-06T13:00:11.147Z,15.61
2017-04-06T13:01:11.482Z,15.66
2017-04-06T13:02:11.223Z,15.74
2017-04-06T13:03:11.301Z,15.7
2017-04-06T13:04:11.304Z,15.85
2017-04-06T13:05:11.341Z,15.96
2017-04-06T13:06:11.381Z,15.92
2017-04-06T13:07:11.419Z,16.04
2017-04-06T13:08:11.458Z,15.92